Time;durP1;ratioP1;P1;durP2;ratioP2;P2;SDS_P1;SDS_P2;PMS_P1;PMS_P2;Temp;Humidity;BMP_temperature;BMP_pressure;BME280_temperature;BME280_humidity;BME280_pressure;Samples;Min_cycle;Max_cycle;Signal;HPM_P1;HPM_P2
2023/07/29 00:00:47;;;;;;;1.38;1.30;;;;;;;;;;5038391;28;20203;-72
2023/07/29 00:03:14;;;;;;;1.55;1.45;;;;;;;;;;5037475;28;20208;-73
2023/07/29 00:05:42;;;;;;;3.38;1.40;;;;;;;;;;5038516;28;20208;-74
2023/07/29 00:08:09;;;;;;;4.68;1.52;;;;;;;;;;5037969;28;20200;-73
2023/07/29 00:10:38;;;;;;;1.30;1.20;;;;;;;;;;5039670;28;20208;-74
2023/07/29 00:13:05;;;;;;;1.90;1.50;;;;;;;;;;5044232;28;20277;-73
2023/07/29 00:15:33;;;;;;;2.70;1.42;;;;;;;;;;5043637;28;20218;-73
2023/07/29 00:18:01;;;;;;;3.47;1.60;;;;;;;;;;5038696;28;20223;-74
2023/07/29 00:20:28;;;;;;;1.85;1.70;;;;;;;;;;5037805;28;20206;-74
2023/07/29 00:22:57;;;;;;;1.20;1.20;;;;;;;;;;5044405;28;20235;-72
2023/07/29 00:25:25;;;;;;;1.50;1.40;;;;;;;;;;5034599;28;20298;-73
2023/07/29 00:27:52;;;;;;;1.92;1.20;;;;;;;;;;5035438;28;20202;-71
2023/07/29 00:30:19;;;;;;;3.63;1.33;;;;;;;;;;5033153;28;20196;-74
2023/07/29 00:32:46;;;;;;;2.58;1.55;;;;;;;;;;5032393;28;20204;-72
2023/07/29 00:35:15;;;;;;;1.60;1.50;;;;;;;;;;5036473;28;20196;-73
2023/07/29 00:37:42;;;;;;;1.45;1.33;;;;;;;;;;5035686;28;20219;-73
2023/07/29 00:40:14;;;;;;;1.77;1.40;;;;;;;;;;5037741;28;20227;-70
2023/07/29 00:42:42;;;;;;;2.17;1.50;;;;;;;;;;5034504;28;20218;-74
2023/07/29 00:45:10;;;;;;;1.77;1.50;;;;;;;;;;5035776;28;20262;-74
2023/07/29 00:47:37;;;;;;;1.65;1.40;;;;;;;;;;5033031;28;20234;-73
2023/07/29 00:50:04;;;;;;;2.22;1.45;;;;;;;;;;5035149;28;20249;-74
2023/07/29 00:52:33;;;;;;;1.50;1.40;;;;;;;;;;5037797;28;20199;-73
2023/07/29 00:55:00;;;;;;;1.55;1.45;;;;;;;;;;5038377;28;20215;-74
2023/07/29 00:57:28;;;;;;;2.60;1.52;;;;;;;;;;5038783;28;20200;-73
2023/07/29 00:59:55;;;;;;;1.60;1.50;;;;;;;;;;5038720;28;20231;-74
2023/07/29 01:02:23;;;;;;;1.70;1.60;;;;;;;;;;5039779;28;20223;-73
2023/07/29 01:04:53;;;;;;;1.65;1.55;;;;;;;;;;5039986;28;20196;-74
2023/07/29 01:07:23;;;;;;;1.80;1.70;;;;;;;;;;5035986;28;20414;-73
2023/07/29 01:09:55;;;;;;;1.60;1.50;;;;;;;;;;5036398;28;20196;-73
2023/07/29 01:12:23;;;;;;;1.63;1.50;;;;;;;;;;5033892;28;20204;-66
2023/07/29 01:14:57;;;;;;;1.80;1.40;;;;;;;;;;5035931;28;20474;-66
2023/07/29 01:17:25;;;;;;;2.75;1.63;;;;;;;;;;5035447;28;20209;-66
2023/07/29 01:20:01;;;;;;;4.63;1.60;;;;;;;;;;5035129;28;20215;-66
2023/07/29 01:22:29;;;;;;;1.70;1.60;;;;;;;;;;5036267;28;20266;-66
2023/07/29 01:24:58;;;;;;;1.73;1.63;;;;;;;;;;5041354;28;20204;-66
2023/07/29 01:27:25;;;;;;;2.78;1.83;;;;;;;;;;5039077;28;20203;-66
2023/07/29 01:29:52;;;;;;;2.17;1.63;;;;;;;;;;5039421;28;20195;-65
2023/07/29 01:32:24;;;;;;;2.10;1.67;;;;;;;;;;5039793;28;20215;-66
2023/07/29 01:35:01;;;;;;;2.72;1.60;;;;;;;;;;5042192;28;20208;-66
2023/07/29 01:37:32;;;;;;;1.80;1.70;;;;;;;;;;5040313;28;20490;-66
2023/07/29 01:40:01;;;;;;;2.00;1.77;;;;;;;;;;5038964;28;20211;-66
2023/07/29 01:42:30;;;;;;;2.85;1.80;;;;;;;;;;5037856;28;20291;-66
2023/07/29 01:44:57;;;;;;;2.70;1.67;;;;;;;;;;5032168;28;20208;-66
2023/07/29 01:47:24;;;;;;;1.70;1.60;;;;;;;;;;5033717;28;20239;-66
2023/07/29 01:49:51;;;;;;;4.72;2.13;;;;;;;;;;5034862;28;20204;-67
2023/07/29 01:52:19;;;;;;;4.72;2.03;;;;;;;;;;5035834;28;20214;-66
2023/07/29 01:54:46;;;;;;;2.35;1.88;;;;;;;;;;5031598;28;20203;-66
2023/07/29 01:57:14;;;;;;;2.45;1.70;;;;;;;;;;5031876;28;20200;-66
2023/07/29 01:59:41;;;;;;;2.72;1.70;;;;;;;;;;5036797;28;20227;-66
2023/07/29 02:02:09;;;;;;;2.20;2.00;;;;;;;;;;5043131;28;20200;-66
2023/07/29 02:04:36;;;;;;;3.10;1.90;;;;;;;;;;5037319;28;20504;-66
2023/07/29 02:07:03;;;;;;;2.97;1.98;;;;;;;;;;5029609;28;20219;-66
2023/07/29 02:09:31;;;;;;;1.80;1.70;;;;;;;;;;5026395;28;20200;-67
2023/07/29 02:11:58;;;;;;;2.03;1.90;;;;;;;;;;5030637;28;20243;-67
2023/07/29 02:14:27;;;;;;;3.08;1.70;;;;;;;;;;5033868;28;20211;-67
2023/07/29 02:16:54;;;;;;;2.90;2.05;;;;;;;;;;5031338;28;20219;-67
2023/07/29 02:19:21;;;;;;;2.28;2.17;;;;;;;;;;5031331;28;20232;-66
2023/07/29 02:21:48;;;;;;;2.03;1.80;;;;;;;;;;5031699;28;20211;-66
2023/07/29 02:24:15;;;;;;;1.70;1.60;;;;;;;;;;5036648;28;20204;-66
2023/07/29 02:26:43;;;;;;;3.00;1.67;;;;;;;;;;5030457;28;20208;-66
2023/07/29 02:29:10;;;;;;;3.55;1.88;;;;;;;;;;5032230;28;20200;-66
2023/07/29 02:31:38;;;;;;;2.53;2.10;;;;;;;;;;5034760;28;20200;-66
2023/07/29 02:34:05;;;;;;;3.95;2.10;;;;;;;;;;5030589;28;20208;-67
2023/07/29 02:36:33;;;;;;;2.45;2.17;;;;;;;;;;5032678;28;20206;-66
2023/07/29 02:39:00;;;;;;;2.88;2.35;;;;;;;;;;5037827;28;20227;-66
2023/07/29 02:41:27;;;;;;;4.72;2.22;;;;;;;;;;5040279;28;20207;-66
2023/07/29 02:43:54;;;;;;;3.22;2.90;;;;;;;;;;5036378;28;20211;-66
2023/07/29 02:46:21;;;;;;;3.47;2.30;;;;;;;;;;5036679;28;20216;-66
2023/07/29 02:48:50;;;;;;;3.38;2.63;;;;;;;;;;5035345;28;20196;-66
2023/07/29 02:51:17;;;;;;;3.03;2.72;;;;;;;;;;5033036;28;20203;-66
2023/07/29 02:53:44;;;;;;;4.15;2.30;;;;;;;;;;5039878;28;20286;-67
2023/07/29 02:56:11;;;;;;;3.67;2.15;;;;;;;;;;5034194;28;20207;-68
2023/07/29 02:58:39;;;;;;;3.40;2.90;;;;;;;;;;5036872;28;20207;-66
2023/07/29 03:01:07;;;;;;;3.88;3.30;;;;;;;;;;5038937;28;20208;-67
2023/07/29 03:03:34;;;;;;;5.55;3.30;;;;;;;;;;5045895;28;20229;-66
2023/07/29 03:06:03;;;;;;;3.63;2.63;;;;;;;;;;5040193;28;20214;-66
2023/07/29 03:08:31;;;;;;;4.68;2.40;;;;;;;;;;5035016;28;20199;-66
2023/07/29 03:10:58;;;;;;;2.67;2.53;;;;;;;;;;5035699;28;20203;-67
2023/07/29 03:13:25;;;;;;;4.68;2.55;;;;;;;;;;5034814;28;20215;-67
2023/07/29 03:15:52;;;;;;;3.65;2.55;;;;;;;;;;5032028;28;20222;-66
2023/07/29 03:18:20;;;;;;;5.13;2.40;;;;;;;;;;5034151;28;20196;-66
2023/07/29 03:20:47;;;;;;;2.35;2.08;;;;;;;;;;5034092;28;20240;-67
2023/07/29 03:23:15;;;;;;;2.58;2.20;;;;;;;;;;5032844;28;20239;-66
2023/07/29 03:25:42;;;;;;;2.72;2.30;;;;;;;;;;5038934;28;20212;-66
2023/07/29 03:28:10;;;;;;;2.97;1.90;;;;;;;;;;5038736;28;20204;-67
2023/07/29 03:30:37;;;;;;;2.83;2.28;;;;;;;;;;5040752;28;20214;-66
2023/07/29 03:33:04;;;;;;;2.85;1.92;;;;;;;;;;5042353;28;20290;-67
2023/07/29 03:35:31;;;;;;;2.10;1.90;;;;;;;;;;5043793;28;20238;-66
2023/07/29 03:37:58;;;;;;;2.97;1.85;;;;;;;;;;5038732;28;20215;-66
2023/07/29 03:40:27;;;;;;;4.28;2.60;;;;;;;;;;5039274;28;20226;-66
2023/07/29 03:42:54;;;;;;;4.22;2.83;;;;;;;;;;5035202;28;20211;-66
2023/07/29 03:45:21;;;;;;;3.30;2.97;;;;;;;;;;5042246;28;20192;-66
2023/07/29 03:47:48;;;;;;;7.78;2.70;;;;;;;;;;5038547;28;20283;-67
2023/07/29 03:50:16;;;;;;;3.45;2.50;;;;;;;;;;5041954;28;20192;-66
2023/07/29 03:52:43;;;;;;;3.30;2.50;;;;;;;;;;5035414;28;20204;-67
2023/07/29 03:55:10;;;;;;;6.43;2.70;;;;;;;;;;5034792;28;20212;-66
2023/07/29 03:57:39;;;;;;;3.97;2.75;;;;;;;;;;5032690;28;20215;-66
2023/07/29 04:00:07;;;;;;;2.60;2.38;;;;;;;;;;5030903;28;20247;-66
2023/07/29 04:02:34;;;;;;;4.90;2.60;;;;;;;;;;5032297;28;20204;-66
2023/07/29 04:05:01;;;;;;;2.90;2.40;;;;;;;;;;5031848;28;20215;-66
2023/07/29 04:07:28;;;;;;;4.53;2.13;;;;;;;;;;5035896;28;20204;-67
2023/07/29 04:09:56;;;;;;;2.55;2.35;;;;;;;;;;5037970;28;20522;-66
2023/07/29 04:12:23;;;;;;;2.30;1.92;;;;;;;;;;5040347;28;20208;-67
2023/07/29 04:14:52;;;;;;;2.28;2.03;;;;;;;;;;5034985;28;20207;-66
2023/07/29 04:17:19;;;;;;;2.15;2.03;;;;;;;;;;5040462;28;20200;-67
2023/07/29 04:19:46;;;;;;;2.00;1.90;;;;;;;;;;5036651;28;20223;-67
2023/07/29 04:22:14;;;;;;;1.80;1.70;;;;;;;;;;5034218;28;20246;-67
2023/07/29 04:24:41;;;;;;;2.70;1.75;;;;;;;;;;5035872;28;20446;-67
2023/07/29 04:27:08;;;;;;;1.80;1.70;;;;;;;;;;5032210;28;20212;-67
2023/07/29 04:29:36;;;;;;;3.28;1.70;;;;;;;;;;5032531;28;20200;-67
2023/07/29 04:32:05;;;;;;;1.80;1.70;;;;;;;;;;5031848;28;20207;-67
2023/07/29 04:34:32;;;;;;;2.08;1.63;;;;;;;;;;5030287;28;20204;-67
2023/07/29 04:36:59;;;;;;;3.30;1.77;;;;;;;;;;5031206;28;20199;-67
2023/07/29 04:39:26;;;;;;;2.92;1.70;;;;;;;;;;5032129;28;20212;-66
2023/07/29 04:41:53;;;;;;;3.15;1.98;;;;;;;;;;5029095;28;20216;-66
2023/07/29 04:44:21;;;;;;;2.58;1.70;;;;;;;;;;5034425;28;20208;-67
2023/07/29 04:46:48;;;;;;;2.78;1.35;;;;;;;;;;5031192;28;20196;-66
2023/07/29 04:49:16;;;;;;;1.67;1.58;;;;;;;;;;5038968;28;20287;-66
2023/07/29 04:51:43;;;;;;;1.60;1.50;;;;;;;;;;5036463;28;20210;-67
2023/07/29 04:54:11;;;;;;;2.55;1.75;;;;;;;;;;5033345;28;20203;-67
2023/07/29 04:56:38;;;;;;;1.73;1.63;;;;;;;;;;5031695;28;20803;-66
2023/07/29 04:59:05;;;;;;;2.17;1.52;;;;;;;;;;5038389;28;20203;-67
2023/07/29 05:01:32;;;;;;;2.63;1.60;;;;;;;;;;5037168;28;20227;-66
2023/07/29 05:03:59;;;;;;;1.90;1.80;;;;;;;;;;5032939;28;20199;-67
2023/07/29 05:06:28;;;;;;;3.58;1.90;;;;;;;;;;5038593;28;20207;-66
2023/07/29 05:08:55;;;;;;;1.70;1.60;;;;;;;;;;5033045;28;20215;-67
2023/07/29 05:11:25;;;;;;;1.63;1.50;;;;;;;;;;5032113;28;20199;-67
2023/07/29 05:13:52;;;;;;;1.77;1.67;;;;;;;;;;5034859;28;20235;-66
2023/07/29 05:16:19;;;;;;;1.48;1.38;;;;;;;;;;5032059;28;20219;-66
2023/07/29 05:18:46;;;;;;;1.70;1.60;;;;;;;;;;5031907;28;20201;-66
2023/07/29 05:21:14;;;;;;;1.50;1.40;;;;;;;;;;5033809;28;20246;-67
2023/07/29 05:23:42;;;;;;;2.25;1.33;;;;;;;;;;5041331;28;20286;-67
2023/07/29 05:26:09;;;;;;;1.30;1.20;;;;;;;;;;5039868;28;20204;-66
2023/07/29 05:28:37;;;;;;;1.35;1.25;;;;;;;;;;5040367;28;20211;-66
2023/07/29 05:31:04;;;;;;;1.50;1.40;;;;;;;;;;5038597;28;20218;-66
2023/07/29 05:33:31;;;;;;;2.97;1.35;;;;;;;;;;5038124;28;20295;-66
2023/07/29 05:35:58;;;;;;;2.58;1.20;;;;;;;;;;5042785;28;20214;-66
2023/07/29 05:38:25;;;;;;;1.40;1.30;;;;;;;;;;5035861;28;20208;-66
2023/07/29 05:40:54;;;;;;;1.52;1.42;;;;;;;;;;5042221;28;20223;-66
2023/07/29 05:43:21;;;;;;;1.85;1.27;;;;;;;;;;5041043;28;20211;-66
2023/07/29 05:45:48;;;;;;;1.38;1.27;;;;;;;;;;5030646;28;20227;-67
2023/07/29 05:48:15;;;;;;;1.27;1.20;;;;;;;;;;5037580;28;20233;-66
2023/07/29 05:50:42;;;;;;;1.92;1.30;;;;;;;;;;5037282;28;20200;-66
2023/07/29 05:53:10;;;;;;;3.60;1.50;;;;;;;;;;5037189;28;20210;-66
2023/07/29 05:55:37;;;;;;;1.92;1.80;;;;;;;;;;5038592;28;20204;-66
2023/07/29 05:58:05;;;;;;;2.10;1.90;;;;;;;;;;5035810;28;20219;-66
2023/07/29 06:00:32;;;;;;;2.10;1.92;;;;;;;;;;5037994;28;20223;-66
2023/07/29 06:03:00;;;;;;;2.22;2.00;;;;;;;;;;5039861;28;20203;-74
2023/07/29 06:05:27;;;;;;;2.63;2.00;;;;;;;;;;5040137;28;20290;-73
2023/07/29 06:07:54;;;;;;;2.70;2.10;;;;;;;;;;5040688;28;20211;-74
2023/07/29 06:10:22;;;;;;;3.00;2.13;;;;;;;;;;5035028;28;20208;-74
2023/07/29 06:12:49;;;;;;;1.90;1.80;;;;;;;;;;5034496;28;20261;-73
2023/07/29 06:15:21;;;;;;;1.75;1.65;;;;;;;;;;5037131;28;20204;-74
2023/07/29 06:17:48;;;;;;;3.20;2.20;;;;;;;;;;5041359;28;20200;-73
2023/07/29 06:20:16;;;;;;;2.33;2.13;;;;;;;;;;5047548;28;20637;-72
2023/07/29 06:22:43;;;;;;;4.65;2.22;;;;;;;;;;5040971;28;20235;-74
2023/07/29 06:25:10;;;;;;;2.17;1.98;;;;;;;;;;5043945;28;20207;-73
2023/07/29 06:27:37;;;;;;;2.17;2.03;;;;;;;;;;5037417;28;20202;-73
2023/07/29 06:30:05;;;;;;;3.42;2.05;;;;;;;;;;5035722;28;20234;-73
2023/07/29 06:32:33;;;;;;;2.53;1.98;;;;;;;;;;5032945;28;20206;-74
2023/07/29 06:35:00;;;;;;;1.90;1.80;;;;;;;;;;5034434;28;20203;-70
2023/07/29 06:37:28;;;;;;;2.30;2.03;;;;;;;;;;5032812;28;20204;-73
2023/07/29 06:39:55;;;;;;;2.45;2.25;;;;;;;;;;5031974;28;20215;-71
2023/07/29 06:42:22;;;;;;;2.30;2.08;;;;;;;;;;5031053;28;20370;-73
2023/07/29 06:44:49;;;;;;;2.05;1.88;;;;;;;;;;5038626;28;20197;-72
2023/07/29 06:47:16;;;;;;;1.88;1.70;;;;;;;;;;5033184;28;20204;-73
2023/07/29 06:49:45;;;;;;;2.15;1.88;;;;;;;;;;5031181;28;20208;-69
2023/07/29 06:52:12;;;;;;;2.25;1.70;;;;;;;;;;5032427;28;20204;-73
2023/07/29 06:54:39;;;;;;;4.45;2.50;;;;;;;;;;5030722;28;20206;-73
2023/07/29 06:57:09;;;;;;;2.40;2.22;;;;;;;;;;5031474;28;20204;-70
2023/07/29 06:59:36;;;;;;;1.80;1.70;;;;;;;;;;5034346;28;20211;-72
2023/07/29 07:02:04;;;;;;;2.92;2.08;;;;;;;;;;5036447;28;20216;-73
2023/07/29 07:04:31;;;;;;;2.22;1.83;;;;;;;;;;5037058;28;20211;-73
2023/07/29 07:06:59;;;;;;;1.80;1.70;;;;;;;;;;5035695;28;20208;-73
2023/07/29 07:09:26;;;;;;;2.30;1.88;;;;;;;;;;5038255;28;20204;-72
2023/07/29 07:11:54;;;;;;;5.45;4.30;;;;;;;;;;5035847;28;20208;-73
2023/07/29 07:14:21;;;;;;;4.60;4.20;;;;;;;;;;5037426;28;20211;-72
2023/07/29 07:16:48;;;;;;;4.25;3.67;;;;;;;;;;5039894;28;20207;-73
2023/07/29 07:19:15;;;;;;;4.18;3.47;;;;;;;;;;5038944;28;20208;-74
2023/07/29 07:21:42;;;;;;;2.60;2.50;;;;;;;;;;5038595;28;20220;-73
2023/07/29 07:24:11;;;;;;;1.83;1.73;;;;;;;;;;5044205;28;20502;-74
2023/07/29 07:26:38;;;;;;;3.28;1.83;;;;;;;;;;5038245;28;20207;-73
2023/07/29 07:29:05;;;;;;;1.67;1.45;;;;;;;;;;5038973;28;20215;-73
2023/07/29 07:31:34;;;;;;;1.52;1.42;;;;;;;;;;5038258;28;20207;-73
2023/07/29 07:34:03;;;;;;;3.63;1.60;;;;;;;;;;5033912;28;20214;-73
2023/07/29 07:36:30;;;;;;;5.00;1.60;;;;;;;;;;5037449;28;20208;-73
2023/07/29 07:38:58;;;;;;;1.70;1.60;;;;;;;;;;5037703;28;20258;-72
2023/07/29 07:41:26;;;;;;;1.55;1.45;;;;;;;;;;5038219;28;20233;-71
2023/07/29 07:43:53;;;;;;;2.92;1.73;;;;;;;;;;5037095;28;20196;-71
2023/07/29 07:46:21;;;;;;;3.80;1.65;;;;;;;;;;5040672;28;20208;-73
2023/07/29 07:48:48;;;;;;;1.73;1.50;;;;;;;;;;5039886;28;20204;-73
2023/07/29 07:51:15;;;;;;;1.60;1.50;;;;;;;;;;5036418;28;20200;-73
2023/07/29 07:53:42;;;;;;;1.50;1.40;;;;;;;;;;5040973;28;20208;-73
2023/07/29 07:56:09;;;;;;;2.30;1.60;;;;;;;;;;5041102;28;20207;-73
2023/07/29 07:58:38;;;;;;;1.92;1.80;;;;;;;;;;5036682;28;20200;-73
2023/07/29 08:01:06;;;;;;;3.22;1.90;;;;;;;;;;5037408;28;20231;-73
2023/07/29 08:03:33;;;;;;;4.72;1.50;;;;;;;;;;5037955;28;20196;-72
2023/07/29 08:06:00;;;;;;;3.20;1.40;;;;;;;;;;5035155;28;20208;-72
2023/07/29 08:08:28;;;;;;;2.28;1.40;;;;;;;;;;5036514;28;20204;-73
2023/07/29 08:10:55;;;;;;;1.50;1.40;;;;;;;;;;5033262;28;20200;-72
2023/07/29 08:13:22;;;;;;;1.58;1.30;;;;;;;;;;5039534;28;20208;-72
2023/07/29 08:15:51;;;;;;;1.33;1.30;;;;;;;;;;5036870;28;20215;-72
2023/07/29 08:18:19;;;;;;;1.13;1.13;;;;;;;;;;5032025;28;20209;-72
2023/07/29 08:20:54;;;;;;;2.22;1.58;;;;;;;;;;5033009;28;20232;-70
2023/07/29 08:23:21;;;;;;;1.60;1.50;;;;;;;;;;5038812;28;20538;-66
2023/07/29 08:25:52;;;;;;;1.80;1.70;;;;;;;;;;5037357;28;20204;-65
2023/07/29 08:28:19;;;;;;;1.30;1.30;;;;;;;;;;5035014;28;20210;-66
2023/07/29 08:30:46;;;;;;;4.72;1.60;;;;;;;;;;5037917;28;20199;-66
2023/07/29 08:33:15;;;;;;;1.60;1.50;;;;;;;;;;5037554;28;20241;-66
2023/07/29 08:35:42;;;;;;;1.42;1.33;;;;;;;;;;5036294;28;20204;-65
2023/07/29 08:38:09;;;;;;;1.75;1.27;;;;;;;;;;5041030;28;20199;-65
2023/07/29 08:40:38;;;;;;;2.00;1.30;;;;;;;;;;5036652;28;20192;-65
2023/07/29 08:43:06;;;;;;;1.33;1.10;;;;;;;;;;5035980;28;20214;-65
2023/07/29 08:45:36;;;;;;;1.40;1.30;;;;;;;;;;5035076;28;20204;-66
2023/07/29 08:48:07;;;;;;;1.52;1.42;;;;;;;;;;5037442;28;20295;-64
2023/07/29 08:50:37;;;;;;;1.70;1.60;;;;;;;;;;5032550;28;20208;-65
2023/07/29 08:53:06;;;;;;;1.63;1.38;;;;;;;;;;5036238;28;20203;-64
2023/07/29 08:55:33;;;;;;;2.70;1.60;;;;;;;;;;5029936;28;20204;-64
2023/07/29 08:58:01;;;;;;;2.58;1.60;;;;;;;;;;5035945;28;20200;-66
2023/07/29 09:00:28;;;;;;;2.15;1.35;;;;;;;;;;5031559;28;20222;-65
2023/07/29 09:03:02;;;;;;;1.48;1.38;;;;;;;;;;5030920;28;20236;-64
2023/07/29 09:05:29;;;;;;;2.13;1.50;;;;;;;;;;5036067;28;20258;-64
2023/07/29 09:07:57;;;;;;;2.13;1.40;;;;;;;;;;5038052;28;20212;-65
2023/07/29 09:10:25;;;;;;;1.40;1.30;;;;;;;;;;5045611;28;20200;-65
2023/07/29 09:12:53;;;;;;;1.80;1.70;;;;;;;;;;5035606;28;20200;-64
2023/07/29 09:15:28;;;;;;;1.65;1.40;;;;;;;;;;5037857;28;20288;-63
2023/07/29 09:17:56;;;;;;;1.70;1.50;;;;;;;;;;5035534;28;20218;-64
2023/07/29 09:20:25;;;;;;;1.30;1.20;;;;;;;;;;5035120;28;20199;-64
2023/07/29 09:22:52;;;;;;;1.55;1.45;;;;;;;;;;5035289;28;20231;-64
2023/07/29 09:25:25;;;;;;;1.52;1.40;;;;;;;;;;5039178;28;20203;-64
2023/07/29 09:27:53;;;;;;;2.25;1.30;;;;;;;;;;5032507;28;20203;-63
2023/07/29 09:30:20;;;;;;;1.65;1.50;;;;;;;;;;5035662;28;20231;-65
2023/07/29 09:32:47;;;;;;;1.38;1.30;;;;;;;;;;5034976;28;20211;-64
2023/07/29 09:35:16;;;;;;;1.88;1.30;;;;;;;;;;5040729;28;20212;-63
2023/07/29 09:37:46;;;;;;;2.55;1.45;;;;;;;;;;5032150;28;20219;-63
2023/07/29 09:40:16;;;;;;;0.95;0.95;;;;;;;;;;5041026;28;20240;-64
2023/07/29 09:42:51;;;;;;;1.45;1.30;;;;;;;;;;5034537;28;20322;-63
2023/07/29 09:45:23;;;;;;;1.38;1.27;;;;;;;;;;5035401;28;20335;-65
2023/07/29 09:47:50;;;;;;;2.90;1.25;;;;;;;;;;5039851;28;20283;-64
2023/07/29 09:50:18;;;;;;;3.17;1.30;;;;;;;;;;5044387;28;20235;-66
2023/07/29 09:52:48;;;;;;;1.40;1.30;;;;;;;;;;5042128;28;20214;-64
2023/07/29 09:55:18;;;;;;;1.17;1.13;;;;;;;;;;5039680;28;20227;-65
2023/07/29 09:57:46;;;;;;;1.48;1.10;;;;;;;;;;5037162;28;20218;-63
2023/07/29 10:00:15;;;;;;;2.10;1.10;;;;;;;;;;5036051;28;20291;-65
2023/07/29 10:02:43;;;;;;;1.30;1.20;;;;;;;;;;5043291;28;20231;-63
2023/07/29 10:05:11;;;;;;;1.48;1.10;;;;;;;;;;5041372;28;20405;-63
2023/07/29 10:07:39;;;;;;;1.27;1.10;;;;;;;;;;5036672;28;20215;-65
2023/07/29 10:10:07;;;;;;;1.83;1.35;;;;;;;;;;5035779;28;20214;-64
2023/07/29 10:12:34;;;;;;;1.45;1.20;;;;;;;;;;5039370;28;20195;-64
2023/07/29 10:15:01;;;;;;;1.15;1.15;;;;;;;;;;5031335;28;20222;-65
2023/07/29 10:17:31;;;;;;;3.30;1.13;;;;;;;;;;5039863;28;20204;-65
2023/07/29 10:19:58;;;;;;;1.25;1.17;;;;;;;;;;5030817;28;20214;-65
2023/07/29 10:22:26;;;;;;;2.08;1.17;;;;;;;;;;5034111;28;20228;-64
2023/07/29 10:24:55;;;;;;;1.38;1.13;;;;;;;;;;5034685;28;20265;-64
2023/07/29 10:27:24;;;;;;;1.90;1.15;;;;;;;;;;5037830;28;20219;-64
2023/07/29 10:29:52;;;;;;;1.20;1.20;;;;;;;;;;5033471;28;20204;-65
2023/07/29 10:32:20;;;;;;;1.60;1.23;;;;;;;;;;5038295;28;20514;-64
2023/07/29 10:34:49;;;;;;;1.15;1.15;;;;;;;;;;5044570;28;20216;-64
2023/07/29 10:37:16;;;;;;;1.35;1.13;;;;;;;;;;5045272;28;20239;-64
2023/07/29 10:39:53;;;;;;;2.33;1.35;;;;;;;;;;5041778;28;20207;-64
2023/07/29 10:42:20;;;;;;;1.20;1.20;;;;;;;;;;5046384;28;20215;-64
2023/07/29 10:44:49;;;;;;;1.55;1.45;;;;;;;;;;5045452;28;20299;-64
2023/07/29 10:47:17;;;;;;;1.30;1.30;;;;;;;;;;5043346;28;20242;-64
2023/07/29 10:49:44;;;;;;;1.42;1.25;;;;;;;;;;5043650;28;20200;-63
2023/07/29 10:52:16;;;;;;;4.00;1.42;;;;;;;;;;5044518;28;20204;-63
2023/07/29 10:54:44;;;;;;;1.88;1.30;;;;;;;;;;5033968;28;20219;-64
2023/07/29 10:57:14;;;;;;;4.07;1.23;;;;;;;;;;5043873;28;20204;-64
2023/07/29 10:59:42;;;;;;;1.08;0.95;;;;;;;;;;5043170;28;20211;-64
2023/07/29 11:02:19;;;;;;;1.67;1.10;;;;;;;;;;5039246;28;20227;-65
2023/07/29 11:04:51;;;;;;;1.42;1.33;;;;;;;;;;5040459;28;20246;-63
2023/07/29 11:07:30;;;;;;;1.85;1.55;;;;;;;;;;5041492;28;20243;-65
2023/07/29 11:10:01;;;;;;;1.95;1.30;;;;;;;;;;5046120;28;20206;-64
2023/07/29 11:12:52;;;;;;;1.13;1.13;;;;;;;;;;5033412;28;20200;-65
2023/07/29 11:15:20;;;;;;;1.10;1.10;;;;;;;;;;5043264;28;20203;-64
2023/07/29 11:17:48;;;;;;;1.25;1.23;;;;;;;;;;5042906;28;20219;-64
2023/07/29 11:20:16;;;;;;;1.65;1.23;;;;;;;;;;5039737;28;20208;-64
2023/07/29 11:22:45;;;;;;;1.13;0.95;;;;;;;;;;5031815;28;20235;-64
2023/07/29 11:25:12;;;;;;;1.45;1.35;;;;;;;;;;5040436;28;20215;-63
2023/07/29 11:27:40;;;;;;;1.60;1.08;;;;;;;;;;5039426;28;20210;-64
2023/07/29 11:30:09;;;;;;;1.20;1.20;;;;;;;;;;5041242;28;20216;-65
2023/07/29 11:32:36;;;;;;;1.00;1.00;;;;;;;;;;5040186;28;20276;-65
2023/07/29 11:35:04;;;;;;;1.13;1.10;;;;;;;;;;5041792;28;20204;-64
2023/07/29 11:37:32;;;;;;;1.63;1.33;;;;;;;;;;5040235;28;20208;-64
2023/07/29 11:40:00;;;;;;;1.10;1.10;;;;;;;;;;5044193;28;20210;-63
2023/07/29 11:42:28;;;;;;;1.45;1.17;;;;;;;;;;5044131;28;20237;-64
2023/07/29 11:44:57;;;;;;;2.28;1.20;;;;;;;;;;5040167;28;20212;-63
2023/07/29 11:47:25;;;;;;;1.00;1.00;;;;;;;;;;5042094;28;20207;-64
2023/07/29 11:49:52;;;;;;;1.13;1.13;;;;;;;;;;5039323;28;20258;-65
2023/07/29 11:52:20;;;;;;;1.15;1.15;;;;;;;;;;5037500;28;20232;-63
2023/07/29 11:54:48;;;;;;;1.13;1.13;;;;;;;;;;5039884;28;20218;-64
2023/07/29 11:57:18;;;;;;;1.17;1.17;;;;;;;;;;5031120;28;20210;-64
2023/07/29 11:59:45;;;;;;;1.23;1.00;;;;;;;;;;5046321;28;20207;-64
2023/07/29 12:02:14;;;;;;;1.33;1.20;;;;;;;;;;5039713;28;20220;-64
2023/07/29 12:04:41;;;;;;;1.20;1.10;;;;;;;;;;5042600;28;20208;-64
2023/07/29 12:07:09;;;;;;;1.60;1.13;;;;;;;;;;5036426;28;20204;-64
2023/07/29 12:09:36;;;;;;;1.65;1.20;;;;;;;;;;5037823;28;20199;-65
2023/07/29 12:12:04;;;;;;;1.05;1.05;;;;;;;;;;5034082;28;20201;-63
2023/07/29 12:14:32;;;;;;;2.42;1.10;;;;;;;;;;5037482;28;20215;-64
2023/07/29 12:17:01;;;;;;;1.58;1.20;;;;;;;;;;5038150;28;20222;-64
2023/07/29 12:19:33;;;;;;;1.10;1.10;;;;;;;;;;5038682;28;20203;-64
2023/07/29 12:22:00;;;;;;;1.20;1.10;;;;;;;;;;5037196;28;20474;-64
2023/07/29 12:24:27;;;;;;;2.70;1.30;;;;;;;;;;5031938;28;20215;-64
2023/07/29 12:26:54;;;;;;;1.67;1.10;;;;;;;;;;5033256;28;20192;-64
2023/07/29 12:29:22;;;;;;;1.10;1.10;;;;;;;;;;5035006;28;20226;-67
2023/07/29 12:31:51;;;;;;;3.25;1.30;;;;;;;;;;5029476;28;20271;-67
2023/07/29 12:34:21;;;;;;;1.73;1.20;;;;;;;;;;5034080;28;20206;-66
2023/07/29 12:36:49;;;;;;;2.05;1.23;;;;;;;;;;5035043;28;20203;-67
2023/07/29 12:39:19;;;;;;;2.25;1.20;;;;;;;;;;5027421;28;20200;-67
2023/07/29 12:41:47;;;;;;;1.60;1.20;;;;;;;;;;5035894;28;20283;-66
2023/07/29 12:44:14;;;;;;;2.55;1.30;;;;;;;;;;5035955;28;20224;-66
2023/07/29 12:46:41;;;;;;;1.10;1.08;;;;;;;;;;5035960;28;20262;-66
2023/07/29 12:49:10;;;;;;;1.10;1.00;;;;;;;;;;5034713;28;20207;-68
2023/07/29 12:51:38;;;;;;;1.20;1.13;;;;;;;;;;5036654;28;20208;-66
2023/07/29 12:54:05;;;;;;;1.23;1.15;;;;;;;;;;5036070;28;20204;-66
2023/07/29 12:56:32;;;;;;;1.63;1.10;;;;;;;;;;5037551;28;20195;-66
2023/07/29 12:59:00;;;;;;;1.80;1.40;;;;;;;;;;5034395;28;20290;-66
2023/07/29 13:01:27;;;;;;;1.17;1.17;;;;;;;;;;5033143;28;20196;-70
2023/07/29 13:03:57;;;;;;;2.15;1.20;;;;;;;;;;5034755;28;20243;-68
2023/07/29 13:06:26;;;;;;;2.83;1.25;;;;;;;;;;5033571;28;20290;-65
2023/07/29 13:08:53;;;;;;;1.50;1.40;;;;;;;;;;5036747;28;20197;-65
2023/07/29 13:11:20;;;;;;;1.15;1.15;;;;;;;;;;5041526;28;20206;-65
2023/07/29 13:13:47;;;;;;;1.35;1.25;;;;;;;;;;5038688;28;20191;-66
2023/07/29 13:16:15;;;;;;;5.53;1.10;;;;;;;;;;5039408;28;20207;-65
2023/07/29 13:18:42;;;;;;;1.38;1.17;;;;;;;;;;5036816;28;20206;-65
2023/07/29 13:21:09;;;;;;;1.50;1.25;;;;;;;;;;5040577;28;20222;-65
2023/07/29 13:23:38;;;;;;;1.30;1.20;;;;;;;;;;5041041;28;20242;-68
2023/07/29 13:26:05;;;;;;;1.48;1.38;;;;;;;;;;5033996;28;20199;-65
2023/07/29 13:28:32;;;;;;;1.42;1.33;;;;;;;;;;5032497;28;20210;-65
2023/07/29 13:30:59;;;;;;;1.48;1.38;;;;;;;;;;5040257;28;20203;-64
2023/07/29 13:33:26;;;;;;;2.80;1.40;;;;;;;;;;5034600;28;20211;-65
2023/07/29 13:35:53;;;;;;;2.33;1.45;;;;;;;;;;5036099;28;20214;-66
2023/07/29 13:38:21;;;;;;;2.05;1.20;;;;;;;;;;5037686;28;20203;-66
2023/07/29 13:40:50;;;;;;;1.65;1.17;;;;;;;;;;5038294;28;20235;-67
2023/07/29 13:43:18;;;;;;;1.38;1.30;;;;;;;;;;5038414;28;20239;-68
2023/07/29 13:45:48;;;;;;;1.20;1.20;;;;;;;;;;5035642;28;20200;-66
2023/07/29 13:48:15;;;;;;;1.45;1.23;;;;;;;;;;5038608;28;20245;-65
2023/07/29 13:50:43;;;;;;;2.97;1.15;;;;;;;;;;5042053;28;20200;-65
2023/07/29 13:53:10;;;;;;;1.63;1.10;;;;;;;;;;5036624;28;20207;-66
2023/07/29 13:55:38;;;;;;;1.38;1.20;;;;;;;;;;5040489;28;20294;-65
2023/07/29 13:58:06;;;;;;;1.63;1.30;;;;;;;;;;5039659;28;20195;-65
2023/07/29 14:00:34;;;;;;;1.20;1.10;;;;;;;;;;5034621;28;20204;-64
2023/07/29 14:03:01;;;;;;;1.45;1.10;;;;;;;;;;5036157;28;20223;-65
2023/07/29 14:05:28;;;;;;;1.33;1.23;;;;;;;;;;5042571;28;20200;-66
2023/07/29 14:07:56;;;;;;;1.20;1.17;;;;;;;;;;5037810;28;20211;-65
2023/07/29 14:10:23;;;;;;;1.10;1.10;;;;;;;;;;5039570;28;20204;-65
2023/07/29 14:12:50;;;;;;;1.15;1.15;;;;;;;;;;5038581;28;20206;-70
2023/07/29 14:15:19;;;;;;;1.20;1.13;;;;;;;;;;5038030;28;20196;-70
2023/07/29 14:17:46;;;;;;;1.10;1.10;;;;;;;;;;5036153;28;20204;-71
2023/07/29 14:20:13;;;;;;;1.00;1.00;;;;;;;;;;5037220;28;20219;-70
2023/07/29 14:22:40;;;;;;;1.30;1.20;;;;;;;;;;5036610;28;20254;-70
2023/07/29 14:25:08;;;;;;;1.15;1.10;;;;;;;;;;5039524;28;20203;-71
2023/07/29 14:27:35;;;;;;;1.20;1.20;;;;;;;;;;5038225;28;20210;-70
2023/07/29 14:30:03;;;;;;;1.10;1.10;;;;;;;;;;5039787;28;20212;-70
2023/07/29 14:32:31;;;;;;;1.00;1.00;;;;;;;;;;5031087;28;20243;-69
2023/07/29 14:35:03;;;;;;;1.10;1.10;;;;;;;;;;5035133;28;20503;-71
2023/07/29 14:37:30;;;;;;;1.35;1.25;;;;;;;;;;5036327;28;20222;-70
2023/07/29 14:39:57;;;;;;;1.30;1.20;;;;;;;;;;5040572;28;20207;-69
2023/07/29 14:42:25;;;;;;;1.20;1.20;;;;;;;;;;5039682;28;20208;-72
2023/07/29 14:44:52;;;;;;;1.30;1.20;;;;;;;;;;5038087;28;20231;-70
2023/07/29 14:47:19;;;;;;;1.35;1.17;;;;;;;;;;5041057;28;20219;-71